createdAt,value
2019-01-13T00:02:15.580Z,101019.17
2019-01-13T00:04:45.958Z,101022.66
2019-01-13T00:07:17.541Z,101025.27
2019-01-13T00:09:48.152Z,101027.90
2019-01-13T00:12:18.741Z,101021.59
2019-01-13T00:14:50.657Z,101026.29
2019-01-13T00:17:21.257Z,101020.31
2019-01-13T00:19:53.005Z,101010.21
2019-01-13T00:22:23.347Z,101002.56
2019-01-13T00:25:02.127Z,101008.06
2019-01-13T00:27:29.183Z,101009.39
2019-01-13T00:29:59.863Z,101015.45
2019-01-13T00:32:30.260Z,101016.30
2019-01-13T00:35:00.981Z,101010.80
2019-01-13T00:37:33.338Z,101009.08
2019-01-13T00:40:04.427Z,101019.81
2019-01-13T00:42:39.824Z,101014.23
2019-01-13T00:45:11.081Z,101021.97
2019-01-13T00:47:41.775Z,101018.14
2019-01-13T00:50:14.270Z,101025.45
2019-01-13T00:52:45.195Z,101019.56
2019-01-13T00:55:15.992Z,101016.59
2019-01-13T00:57:46.455Z,101017.47
2019-01-13T01:00:26.521Z,101006.39
2019-01-13T01:02:53.178Z,100995.80
2019-01-13T01:05:24.237Z,100995.46
2019-01-13T01:07:54.943Z,100993.00
2019-01-13T01:10:25.608Z,100986.09
2019-01-13T01:13:04.884Z,100982.33
2019-01-13T01:15:35.278Z,100987.91
2019-01-13T01:18:05.761Z,100986.23
2019-01-13T01:20:37.087Z,100986.23
2019-01-13T01:23:07.398Z,100984.08
2019-01-13T01:25:39.125Z,100981.05
2019-01-13T01:28:09.525Z,100986.09
2019-01-13T01:30:40.189Z,100983.59
2019-01-13T01:33:10.855Z,100986.54
2019-01-13T01:35:41.512Z,100991.19
2019-01-13T01:38:12.077Z,100986.54
2019-01-13T01:40:42.828Z,100969.98
2019-01-13T01:43:13.491Z,100968.25
2019-01-13T01:45:43.850Z,100964.42
2019-01-13T01:48:14.546Z,100979.86
2019-01-13T01:50:44.876Z,100961.05
2019-01-13T01:53:24.248Z,100965.50
2019-01-13T01:55:49.251Z,100964.28
2019-01-13T01:58:26.499Z,100962.56
2019-01-13T02:00:56.004Z,100957.46
2019-01-13T02:03:26.739Z,100949.67
2019-01-13T02:05:57.029Z,100949.67
2019-01-13T02:08:28.659Z,100952.70
2019-01-13T02:10:58.981Z,100935.70
2019-01-13T02:13:29.594Z,100925.94
2019-01-13T02:15:59.911Z,100909.69
2019-01-13T02:18:30.508Z,100910.56
2019-01-13T02:21:07.242Z,100909.63
2019-01-13T02:23:37.742Z,100905.41
2019-01-13T02:26:08.101Z,100915.66
2019-01-13T02:28:40.094Z,100911.84
2019-01-13T02:31:10.437Z,100908.16
2019-01-13T02:33:41.804Z,100911.49
2019-01-13T02:36:12.434Z,100902.57
2019-01-13T02:38:45.386Z,100896.20
2019-01-13T02:41:17.308Z,100892.38
2019-01-13T02:43:47.907Z,100889.43
2019-01-13T02:46:18.233Z,100909.38
2019-01-13T02:48:49.776Z,100919.57
2019-01-13T02:51:20.089Z,100909.77
2019-01-13T02:53:50.426Z,100915.31
2019-01-13T02:56:21.119Z,100917.41
2019-01-13T02:58:51.793Z,100924.19
2019-01-13T03:01:23.535Z,100930.61
2019-01-13T03:03:53.899Z,100934.86
2019-01-13T03:06:24.401Z,100933.59
2019-01-13T03:08:58.133Z,100933.50
2019-01-13T03:11:28.469Z,100933.98
2019-01-13T03:13:58.869Z,100923.79
2019-01-13T03:16:29.685Z,100929.28
2019-01-13T03:18:59.996Z,100913.98
2019-01-13T03:21:30.573Z,100908.89
2019-01-13T03:24:00.943Z,100908.02
2019-01-13T03:26:34.723Z,100915.66
2019-01-13T03:29:05.215Z,100906.39
2019-01-13T03:31:40.721Z,100891.93
2019-01-13T03:34:11.035Z,100883.45
2019-01-13T03:36:41.310Z,100865.61
2019-01-13T03:39:11.765Z,100858.45
2019-01-13T03:41:42.799Z,100858.93
2019-01-13T03:44:13.155Z,100847.03
2019-01-13T03:46:44.856Z,100856.52
2019-01-13T03:49:15.177Z,100847.16
2019-01-13T03:51:45.845Z,100834.42
2019-01-13T03:54:16.741Z,100834.98
2019-01-13T03:56:47.360Z,100819.20
2019-01-13T03:59:17.992Z,100817.59
2019-01-13T04:01:51.033Z,100804.84
2019-01-13T04:04:21.510Z,100817.24
2019-01-13T04:06:51.854Z,100816.45
2019-01-13T04:09:27.078Z,100806.73
2019-01-13T04:11:57.504Z,100807.66
2019-01-13T04:14:28.506Z,100802.55
2019-01-13T04:16:58.885Z,100794.11
2019-01-13T04:19:29.250Z,100786.52
2019-01-13T04:21:59.800Z,100785.32
2019-01-13T04:24:30.219Z,100781.50
2019-01-13T04:27:00.787Z,100770.47
2019-01-13T04:29:31.108Z,100757.41
2019-01-13T04:32:01.624Z,100753.58
2019-01-13T04:34:32.214Z,100757.50
2019-01-13T04:37:02.852Z,100760.05
2019-01-13T04:39:35.797Z,100752.48
2019-01-13T04:42:06.167Z,100744.43
2019-01-13T04:44:38.344Z,100738.98
2019-01-13T04:47:12.056Z,100723.28
2019-01-13T04:49:42.362Z,100725.03
2019-01-13T04:52:12.646Z,100727.98
2019-01-13T04:54:42.980Z,100716.43
2019-01-13T04:57:18.448Z,100709.73
2019-01-13T04:59:47.227Z,100699.94
2019-01-13T05:02:17.546Z,100684.16
2019-01-13T05:04:48.003Z,100685.44
2019-01-13T05:07:20.464Z,100676.03
2019-01-13T05:09:50.991Z,100691.77
2019-01-13T05:12:21.343Z,100688.34
2019-01-13T05:14:51.705Z,100680.69
2019-01-13T05:17:22.628Z,100661.96
2019-01-13T05:19:52.972Z,100653.08
2019-01-13T05:22:26.513Z,100651.81
2019-01-13T05:24:56.842Z,100650.09
2019-01-13T05:27:29.779Z,100644.98
2019-01-13T05:30:00.193Z,100639.89
2019-01-13T05:32:32.047Z,100639.05
2019-01-13T05:35:02.313Z,100639.05
2019-01-13T05:37:33.140Z,100629.81
2019-01-13T05:40:03.458Z,100617.50
2019-01-13T05:42:33.975Z,100616.66
2019-01-13T05:45:05.601Z,100613.23
2019-01-13T05:47:36.272Z,100608.14
2019-01-13T05:50:07.986Z,100607.30
2019-01-13T05:52:39.978Z,100612.41
2019-01-13T05:55:10.370Z,100605.19
2019-01-13T05:57:47.175Z,100613.36
2019-01-13T06:00:25.869Z,100615.91
2019-01-13T06:02:58.567Z,100615.08
2019-01-13T06:05:29.464Z,100614.20
2019-01-13T06:08:00.176Z,100607.50
2019-01-13T06:10:30.487Z,100613.48
2019-01-13T06:13:03.654Z,100606.27
2019-01-13T06:15:34.642Z,100604.20
2019-01-13T06:18:05.227Z,100609.70
2019-01-13T06:20:35.529Z,100597.81
2019-01-13T06:23:07.042Z,100597.02
2019-01-13T06:25:42.330Z,100590.64
2019-01-13T06:28:09.844Z,100593.19
2019-01-13T06:30:40.124Z,100592.84
2019-01-13T06:33:10.698Z,100584.35
2019-01-13T06:35:41.007Z,100580.09
2019-01-13T06:38:16.834Z,100579.73
2019-01-13T06:40:47.153Z,100572.08
2019-01-13T06:43:17.438Z,100569.13
2019-01-13T06:45:47.754Z,100576.37
2019-01-13T06:48:18.185Z,100572.99
2019-01-13T06:50:48.694Z,100576.02
2019-01-13T06:53:19.159Z,100571.72
2019-01-13T06:55:49.642Z,100572.19
2019-01-13T06:58:19.978Z,100572.67
2019-01-13T07:00:52.297Z,100566.33
2019-01-13T07:03:22.706Z,100563.38
2019-01-13T07:05:53.130Z,100562.58
2019-01-13T07:08:23.951Z,100557.48
2019-01-13T07:10:54.556Z,100550.27
2019-01-13T07:13:26.317Z,100546.91
2019-01-13T07:15:58.964Z,100553.77
2019-01-13T07:18:30.536Z,100550.38
2019-01-13T07:21:02.758Z,100548.34
2019-01-13T07:23:33.103Z,100545.00
2019-01-13T07:26:04.774Z,100542.48
2019-01-13T07:28:35.452Z,100536.98
2019-01-13T07:31:06.062Z,100529.04
2019-01-13T07:33:36.412Z,100524.85
2019-01-13T07:36:07.141Z,100523.69
2019-01-13T07:38:37.667Z,100516.50
2019-01-13T07:41:12.243Z,100517.41
2019-01-13T07:43:42.853Z,100515.78
2019-01-13T07:46:20.644Z,100514.17
2019-01-13T07:48:51.209Z,100517.16
2019-01-13T07:51:24.342Z,100518.91
2019-01-13T07:53:56.237Z,100508.74
2019-01-13T07:56:27.401Z,100513.12
2019-01-13T07:58:59.515Z,100518.77
2019-01-13T08:01:29.828Z,100515.41
2019-01-13T08:04:00.173Z,100516.33
2019-01-13T08:06:31.913Z,100504.44
2019-01-13T08:09:05.284Z,100499.48
2019-01-13T08:11:35.579Z,100502.14
2019-01-13T08:14:06.526Z,100502.25
2019-01-13T08:16:39.060Z,100496.84
2019-01-13T08:19:09.716Z,100493.16
2019-01-13T08:21:40.049Z,100487.72
2019-01-13T08:24:10.390Z,100493.26
2019-01-13T08:26:49.906Z,100498.47
2019-01-13T08:29:20.581Z,100500.69
2019-01-13T08:32:02.042Z,100497.37
2019-01-13T08:34:32.527Z,100492.36
2019-01-13T08:37:14.546Z,100492.47
2019-01-13T08:39:45.370Z,100496.37
2019-01-13T08:42:17.072Z,100482.42
2019-01-13T08:44:49.121Z,100481.62
2019-01-13T08:47:19.524Z,100475.77
2019-01-13T08:49:50.056Z,100477.95
2019-01-13T08:52:25.983Z,100471.23
2019-01-13T08:54:56.361Z,100477.72
2019-01-13T08:57:26.855Z,100470.09
2019-01-13T09:02:19.764Z,100467.33
2019-01-13T09:04:50.075Z,100465.48
2019-01-13T09:07:23.200Z,100468.04
2019-01-13T09:10:14.216Z,100453.18
2019-01-13T09:12:44.922Z,100438.62
2019-01-13T09:15:19.841Z,100438.62
2019-01-13T09:17:52.536Z,100430.69
2019-01-13T09:20:28.225Z,100442.19
2019-01-13T09:23:00.314Z,100443.40
2019-01-13T09:25:32.418Z,100426.36
2019-01-13T09:28:04.002Z,100422.16
2019-01-13T09:30:34.331Z,100420.50
2019-01-13T09:33:08.013Z,100420.50
2019-01-13T09:35:38.297Z,100410.72
2019-01-13T09:38:09.186Z,100416.23
2019-01-13T09:40:39.455Z,100416.23
2019-01-13T09:43:10.022Z,100421.34
2019-01-13T09:45:40.338Z,100423.06
2019-01-13T09:48:10.927Z,100418.02
2019-01-13T09:50:45.839Z,100417.95
2019-01-13T09:53:16.205Z,100412.34
2019-01-13T09:55:46.519Z,100400.41
2019-01-13T09:58:17.156Z,100399.06
2019-01-13T10:00:47.758Z,100395.80
2019-01-13T10:03:18.295Z,100378.78
2019-01-13T10:05:48.815Z,100374.52
2019-01-13T10:08:20.595Z,100377.91
2019-01-13T10:10:52.744Z,100390.22
2019-01-13T10:13:32.229Z,100398.25
2019-01-13T10:16:02.624Z,100397.78
2019-01-13T10:18:34.134Z,100392.77
2019-01-13T10:21:04.781Z,100387.66
2019-01-13T10:23:36.480Z,100374.42
2019-01-13T10:26:11.446Z,100388.91
2019-01-13T10:28:42.424Z,100384.20
2019-01-13T10:31:12.897Z,100382.55
2019-01-13T10:33:45.753Z,100375.36
2019-01-13T10:36:16.096Z,100380.91
2019-01-13T10:38:46.778Z,100368.97
2019-01-13T10:41:17.510Z,100359.63
2019-01-13T10:43:49.780Z,100360.13
2019-01-13T10:46:22.271Z,100338.03
2019-01-13T10:49:01.532Z,100326.72
2019-01-13T10:51:32.089Z,100330.58
2019-01-13T10:54:09.247Z,100323.84
2019-01-13T10:56:41.846Z,100325.63
2019-01-13T10:59:12.200Z,100318.94
2019-01-13T11:01:47.751Z,100318.94
2019-01-13T11:04:18.107Z,100315.14
2019-01-13T11:06:48.483Z,100314.73
2019-01-13T11:09:19.105Z,100319.31
2019-01-13T11:11:55.970Z,100308.02
2019-01-13T11:14:28.179Z,100299.80
2019-01-13T11:16:58.667Z,100293.41
2019-01-13T11:19:29.308Z,100296.92
2019-01-13T11:21:59.843Z,100292.31
2019-01-13T11:24:31.991Z,100273.55
2019-01-13T11:27:02.405Z,100279.62
2019-01-13T11:29:34.597Z,100283.89
2019-01-13T11:32:07.979Z,100273.58
2019-01-13T11:34:39.157Z,100271.95
2019-01-13T11:37:11.259Z,100259.18
2019-01-13T11:39:41.834Z,100269.80
2019-01-13T11:42:17.113Z,100252.23
2019-01-13T11:44:47.760Z,100255.66
2019-01-13T11:47:18.135Z,100237.45
2019-01-13T11:49:48.762Z,100236.61
2019-01-13T11:52:19.114Z,100237.89
2019-01-13T11:54:50.441Z,100228.62
2019-01-13T11:57:20.787Z,100228.62
2019-01-13T11:59:56.423Z,100228.62
2019-01-13T12:02:32.534Z,100214.95
2019-01-13T12:05:01.066Z,100217.02
2019-01-13T12:07:33.055Z,100186.35
2019-01-13T12:10:15.471Z,100201.22
2019-01-13T12:12:44.642Z,100205.05
2019-01-13T12:15:18.474Z,100200.81
2019-01-13T12:17:49.969Z,100202.98
2019-01-13T12:20:24.886Z,100196.08
2019-01-13T12:22:54.090Z,100190.19
2019-01-13T12:25:29.498Z,100182.52
2019-01-13T12:28:00.895Z,100191.81
2019-01-13T12:30:32.989Z,100190.91
2019-01-13T12:33:03.522Z,100180.28
2019-01-13T12:35:34.166Z,100161.61
2019-01-13T12:38:05.023Z,100161.61
2019-01-13T12:40:36.719Z,100165.45
2019-01-13T12:43:09.263Z,100179.97
2019-01-13T12:45:39.808Z,100175.66
2019-01-13T12:48:16.181Z,100173.11
2019-01-13T12:50:48.426Z,100159.03
2019-01-13T12:53:18.811Z,100164.55
2019-01-13T12:55:50.904Z,100159.05
2019-01-13T12:58:21.601Z,100156.03
2019-01-13T13:00:58.530Z,100152.20
2019-01-13T13:03:31.756Z,100134.86
2019-01-13T13:06:06.623Z,100126.30
2019-01-13T13:08:38.604Z,100136.88
2019-01-13T13:11:10.335Z,100132.61
2019-01-13T13:13:40.950Z,100130.87
2019-01-13T13:16:11.583Z,100124.08
2019-01-13T13:18:42.060Z,100106.59
2019-01-13T13:21:12.950Z,100099.78
2019-01-13T13:23:46.632Z,100099.80
2019-01-13T13:26:17.230Z,100095.09
2019-01-13T13:28:51.570Z,100091.34
2019-01-13T13:31:22.554Z,100108.77
2019-01-13T13:33:54.874Z,100088.78
2019-01-13T13:36:27.894Z,100080.73
2019-01-13T13:38:58.538Z,100104.66
2019-01-13T13:41:31.021Z,100102.44
2019-01-13T13:44:01.406Z,100088.71
2019-01-13T13:46:32.292Z,100070.01
2019-01-13T13:49:02.788Z,100059.45
2019-01-13T13:51:37.932Z,100056.38
2019-01-13T13:54:08.304Z,100063.63
2019-01-13T13:56:39.011Z,100054.68
2019-01-13T13:59:09.385Z,100055.49
2019-01-13T14:01:39.929Z,100047.09
2019-01-13T14:04:10.381Z,100049.56
2019-01-13T14:06:40.948Z,100052.61
2019-01-13T14:09:13.111Z,100053.07
2019-01-13T14:11:43.897Z,100062.28
2019-01-13T14:14:14.271Z,100058.38
2019-01-13T14:16:46.884Z,100056.19
2019-01-13T14:19:19.415Z,100063.41
2019-01-13T14:21:49.743Z,100050.23
2019-01-13T14:24:20.226Z,100027.70
2019-01-13T14:26:51.031Z,100045.17
2019-01-13T14:29:21.446Z,100028.16
2019-01-13T14:31:51.813Z,100036.23
2019-01-13T14:34:25.475Z,100045.58
2019-01-13T14:36:55.817Z,100028.92
2019-01-13T14:39:26.466Z,100035.75
2019-01-13T14:41:58.776Z,100045.97
2019-01-13T14:44:29.486Z,100048.47
2019-01-13T14:47:01.941Z,100042.06
2019-01-13T14:49:33.982Z,100034.39
2019-01-13T14:52:04.504Z,100021.56
2019-01-13T14:54:37.154Z,100020.70
2019-01-13T14:57:07.868Z,100032.19
2019-01-13T14:59:43.540Z,100039.42
2019-01-13T15:02:14.998Z,100031.78
2019-01-13T15:04:56.587Z,100044.07
2019-01-13T15:07:22.122Z,100038.15
2019-01-13T15:09:53.927Z,100021.55
2019-01-13T15:12:24.513Z,100024.45
2019-01-13T15:14:55.287Z,100037.22
2019-01-13T15:17:25.670Z,100038.07
2019-01-13T15:19:57.531Z,100031.22
2019-01-13T15:22:28.047Z,100026.96
2019-01-13T15:25:01.343Z,100021.86
2019-01-13T15:27:33.362Z,100034.16
2019-01-13T15:30:05.537Z,100032.42
2019-01-13T15:32:35.922Z,100034.98
2019-01-13T15:35:07.248Z,100037.10
2019-01-13T15:37:40.959Z,100034.06
2019-01-13T15:40:15.581Z,100035.74
2019-01-13T15:42:49.029Z,100037.05
2019-01-13T15:45:21.040Z,100041.72
2019-01-13T15:47:51.366Z,100031.50
2019-01-13T15:50:25.389Z,100035.34
2019-01-13T15:52:55.760Z,100035.74
2019-01-13T15:55:27.657Z,100034.47
2019-01-13T15:57:58.199Z,100032.73
2019-01-13T16:00:34.238Z,100016.53
2019-01-13T16:03:08.301Z,100018.22
2019-01-13T16:05:42.561Z,100026.75
2019-01-13T16:08:14.559Z,100018.68
2019-01-13T16:10:48.413Z,100011.02
2019-01-13T16:13:18.889Z,100023.33
2019-01-13T16:15:49.655Z,100014.39
2019-01-13T16:18:20.007Z,100013.90
2019-01-13T16:20:51.816Z,100015.59
2019-01-13T16:23:24.588Z,100014.75
2019-01-13T16:25:55.560Z,100002.81
2019-01-13T16:28:25.917Z,100007.92
2019-01-13T16:30:56.855Z,100004.48
2019-01-13T16:33:27.486Z,100006.63
2019-01-13T16:36:01.738Z,99999.83
2019-01-13T16:38:32.568Z,100001.50
2019-01-13T16:41:08.568Z,100002.33
2019-01-13T16:43:40.202Z,100000.65
2019-01-13T16:46:11.027Z,99986.98
2019-01-13T16:48:41.634Z,99986.98
2019-01-13T16:51:13.291Z,99989.08
2019-01-13T16:53:43.712Z,99992.91
2019-01-13T16:56:14.556Z,99982.19
2019-01-13T16:58:45.529Z,99979.47
2019-01-13T17:01:15.953Z,99968.38
2019-01-13T17:03:47.666Z,99972.22
2019-01-13T17:06:18.010Z,99960.02
2019-01-13T17:08:48.951Z,99951.87
2019-01-13T17:11:22.700Z,99952.25
2019-01-13T17:13:55.744Z,99947.61
2019-01-13T17:16:31.250Z,99951.55
2019-01-13T17:19:01.376Z,99944.70
2019-01-13T17:21:31.828Z,99952.73
2019-01-13T17:24:02.697Z,99951.87
2019-01-13T17:26:33.118Z,99956.97
2019-01-13T17:29:03.784Z,99957.74
2019-01-13T17:31:34.175Z,99957.74
2019-01-13T17:34:04.711Z,99956.55
2019-01-13T17:36:40.921Z,99966.68
2019-01-13T17:39:13.476Z,99953.35
2019-01-13T17:41:44.048Z,99947.69
2019-01-13T17:44:14.694Z,99946.73
2019-01-13T17:46:45.066Z,99936.55
2019-01-13T17:49:15.698Z,99942.17
2019-01-13T17:51:46.062Z,99939.97
2019-01-13T17:54:16.761Z,99937.47
2019-01-13T17:56:47.430Z,99937.47
2019-01-13T17:59:18.030Z,99933.18
2019-01-13T18:01:52.636Z,99935.79
2019-01-13T18:04:23.505Z,99934.07
2019-01-13T18:06:53.973Z,99942.11
2019-01-13T18:09:25.850Z,99942.58
2019-01-13T18:11:57.252Z,99961.18
2019-01-13T18:14:36.222Z,99963.22
2019-01-13T18:17:07.572Z,99988.69
2019-01-13T18:19:49.500Z,100007.72
2019-01-13T18:22:20.484Z,100007.72
2019-01-13T18:24:56.301Z,100004.23
2019-01-13T18:27:28.383Z,100008.39
2019-01-13T18:30:02.491Z,99995.20
2019-01-13T18:32:33.093Z,99995.20
2019-01-13T18:35:04.953Z,100017.13
2019-01-13T18:37:48.428Z,100006.66
2019-01-13T18:40:20.016Z,100003.78
2019-01-13T18:42:51.927Z,99995.81
2019-01-13T18:45:22.799Z,99988.84
2019-01-13T18:47:55.355Z,99993.34
2019-01-13T18:50:26.159Z,99995.83
2019-01-13T18:53:04.153Z,100000.02
2019-01-13T18:55:49.975Z,100008.98
2019-01-13T18:58:22.681Z,100006.44
2019-01-13T19:00:54.138Z,99991.50
2019-01-13T19:03:24.877Z,100011.17
2019-01-13T19:06:06.371Z,100012.38
2019-01-13T19:08:33.334Z,100012.88
2019-01-13T19:11:25.713Z,100000.58
2019-01-13T19:14:42.076Z,100011.17
2019-01-13T19:17:26.708Z,100021.08
2019-01-13T19:20:21.603Z,100011.80
2019-01-13T19:23:01.020Z,100015.72
2019-01-13T19:25:38.139Z,100023.63
2019-01-13T19:28:09.011Z,100022.45
2019-01-13T19:30:51.523Z,100018.37
2019-01-13T19:33:18.977Z,100025.20
2019-01-13T19:36:06.528Z,100015.69
2019-01-13T19:38:24.835Z,100024.56
2019-01-13T19:40:55.978Z,100021.20
2019-01-13T19:43:26.699Z,100026.04
2019-01-13T19:45:57.273Z,100033.88
2019-01-13T19:48:31.163Z,100036.48
2019-01-13T19:51:01.926Z,100040.61
2019-01-13T19:53:42.504Z,100049.80
2019-01-13T19:56:12.959Z,100050.84
2019-01-13T19:58:47.849Z,100057.70
2019-01-13T20:01:19.949Z,100048.72
2019-01-13T20:04:03.321Z,100048.72
2019-01-13T20:06:24.415Z,100057.04
2019-01-13T20:08:54.706Z,100053.92
2019-01-13T20:11:25.091Z,100053.28
2019-01-13T20:13:55.499Z,100056.89
2019-01-13T20:16:26.331Z,100058.94
2019-01-13T20:18:56.745Z,100054.11
2019-01-13T20:21:27.652Z,100067.98
2019-01-13T20:23:57.992Z,100070.00
2019-01-13T20:26:29.048Z,100076.31
2019-01-13T20:29:00.058Z,100076.79
2019-01-13T20:31:31.099Z,100073.38
2019-01-13T20:34:01.542Z,100079.38
2019-01-13T20:36:33.094Z,100084.75
2019-01-13T20:39:06.509Z,100072.83
2019-01-13T20:41:37.210Z,100093.42
2019-01-13T20:44:09.284Z,100096.41
2019-01-13T20:46:41.630Z,100092.27
2019-01-13T20:49:19.629Z,100096.05
2019-01-13T20:51:47.929Z,100083.08
2019-01-13T20:54:18.498Z,100088.78
2019-01-13T20:56:51.279Z,100091.04
2019-01-13T20:59:23.131Z,100095.88
2019-01-13T21:01:57.736Z,100099.30
2019-01-13T21:04:28.403Z,100095.07
2019-01-13T21:07:00.021Z,100104.89
2019-01-13T21:09:30.341Z,100103.44
2019-01-13T21:12:01.139Z,100109.28
2019-01-13T21:14:31.739Z,100112.80
2019-01-13T21:17:02.313Z,100113.31
2019-01-13T21:19:33.032Z,100111.02
2019-01-13T21:22:03.704Z,100126.77
2019-01-13T21:24:34.146Z,100126.66
2019-01-13T21:27:04.676Z,100119.82
2019-01-13T21:29:35.286Z,100118.70
2019-01-13T21:32:05.997Z,100119.76
2019-01-13T21:34:36.639Z,100126.66
2019-01-13T21:37:07.141Z,100130.88
2019-01-13T21:39:37.782Z,100138.95
2019-01-13T21:42:10.367Z,100134.66
2019-01-13T21:44:40.952Z,100132.10
2019-01-13T21:47:11.302Z,100134.35
2019-01-13T21:49:44.409Z,100141.34
2019-01-13T21:52:18.869Z,100142.36
2019-01-13T21:54:49.589Z,100144.17
2019-01-13T21:57:22.817Z,100141.44
2019-01-13T21:59:53.819Z,100149.48
2019-01-13T22:02:24.298Z,100143.21
2019-01-13T22:04:56.487Z,100136.70
2019-01-13T22:07:27.211Z,100139.23
2019-01-13T22:10:02.983Z,100142.78
2019-01-13T22:12:33.340Z,100148.63
2019-01-13T22:15:05.758Z,100157.67
2019-01-13T22:17:36.212Z,100149.09
2019-01-13T22:20:09.367Z,100150.98
2019-01-13T22:22:44.567Z,100156.77
2019-01-13T22:25:17.645Z,100156.77
2019-01-13T22:27:48.092Z,100163.15
2019-01-13T22:30:20.475Z,100156.73
2019-01-13T22:32:50.829Z,100160.02
2019-01-13T22:35:21.432Z,100163.65
2019-01-13T22:37:55.854Z,100167.55
2019-01-13T22:40:25.082Z,100172.05
2019-01-13T22:42:55.579Z,100174.12
2019-01-13T22:45:26.016Z,100179.41
2019-01-13T22:47:56.270Z,100184.41
2019-01-13T22:50:26.685Z,100184.64
2019-01-13T22:52:57.479Z,100183.66
2019-01-13T22:55:27.847Z,100187.07
2019-01-13T22:57:58.138Z,100192.15
2019-01-13T23:00:54.657Z,100182.80
2019-01-13T23:03:25.078Z,100193.27
2019-01-13T23:05:55.926Z,100187.06
2019-01-13T23:08:26.593Z,100191.24
2019-01-13T23:10:57.246Z,100204.00
2019-01-13T23:13:27.898Z,100207.89
2019-01-13T23:16:01.007Z,100213.02
2019-01-13T23:18:31.318Z,100209.16
2019-01-13T23:21:03.882Z,100215.53
2019-01-13T23:23:34.512Z,100224.87
2019-01-13T23:26:05.158Z,100223.39
2019-01-13T23:28:35.841Z,100226.89
2019-01-13T23:31:10.112Z,100225.05
2019-01-13T23:33:40.970Z,100227.00
2019-01-13T23:36:11.684Z,100229.55
2019-01-13T23:38:42.301Z,100242.86
2019-01-13T23:41:12.850Z,100242.86
2019-01-13T23:43:43.310Z,100248.54
2019-01-13T23:46:16.328Z,100245.13
2019-01-13T23:48:46.751Z,100242.81
2019-01-13T23:51:17.069Z,100234.22
2019-01-13T23:53:47.651Z,100228.82
2019-01-13T23:56:17.963Z,100248.95
2019-01-13T23:58:50.845Z,100233.60
